sensor_id;sensor_type;location;lat;lon;timestamp;P1;durP1;ratioP1;P2;durP2;ratioP2
58338;SDS011;48278;52.704;6.536;2022-08-19T08:35:41;24.67;;;14.43;;
58338;SDS011;48278;52.704;6.536;2022-08-19T08:38:07;24.17;;;15.77;;
58338;SDS011;48278;52.704;6.536;2022-08-19T08:40:44;25.17;;;16.60;;
58338;SDS011;48278;52.704;6.536;2022-08-19T08:45:55;26.85;;;16.08;;
58338;SDS011;48278;52.704;6.536;2022-08-19T08:48:30;26.50;;;16.35;;
58338;SDS011;48278;52.704;6.536;2022-08-19T08:51:15;26.63;;;13.98;;
58338;SDS011;48278;52.704;6.536;2022-08-19T08:53:46;26.85;;;15.57;;
58338;SDS011;48278;52.704;6.536;2022-08-19T08:56:15;24.00;;;15.68;;
58338;SDS011;48278;52.704;6.536;2022-08-19T09:01:22;26.73;;;16.65;;
58338;SDS011;48278;52.704;6.536;2022-08-19T09:03:49;26.13;;;15.73;;
58338;SDS011;48278;52.704;6.536;2022-08-19T09:09:02;25.65;;;16.92;;
58338;SDS011;48278;52.704;6.536;2022-08-19T09:11:47;27.13;;;17.73;;
58338;SDS011;48278;52.704;6.536;2022-08-19T09:14:29;28.30;;;16.90;;
58338;SDS011;48278;52.704;6.536;2022-08-19T09:17:06;30.02;;;18.70;;
58338;SDS011;48278;52.704;6.536;2022-08-19T09:19:34;25.73;;;16.40;;
58338;SDS011;48278;52.704;6.536;2022-08-19T09:22:01;26.02;;;16.20;;
58338;SDS011;48278;52.704;6.536;2022-08-19T09:24:27;28.80;;;17.87;;
58338;SDS011;48278;52.704;6.536;2022-08-19T09:26:52;22.83;;;14.50;;
58338;SDS011;48278;52.704;6.536;2022-08-19T09:29:19;23.77;;;15.13;;
58338;SDS011;48278;52.704;6.536;2022-08-19T09:31:45;21.83;;;12.23;;
58338;SDS011;48278;52.704;6.536;2022-08-19T09:34:11;21.07;;;12.70;;
58338;SDS011;48278;52.704;6.536;2022-08-19T09:36:37;22.80;;;13.43;;
58338;SDS011;48278;52.704;6.536;2022-08-19T09:39:04;22.42;;;14.82;;
58338;SDS011;48278;52.704;6.536;2022-08-19T09:41:31;19.65;;;12.68;;
58338;SDS011;48278;52.704;6.536;2022-08-19T09:44:00;22.85;;;14.05;;
58338;SDS011;48278;52.704;6.536;2022-08-19T09:46:27;22.20;;;14.00;;
58338;SDS011;48278;52.704;6.536;2022-08-19T09:48:53;25.45;;;13.65;;
58338;SDS011;48278;52.704;6.536;2022-08-19T09:51:24;20.30;;;13.77;;
58338;SDS011;48278;52.704;6.536;2022-08-19T09:53:53;18.63;;;12.27;;
58338;SDS011;48278;52.704;6.536;2022-08-19T10:01:16;20.13;;;13.13;;
58338;SDS011;48278;52.704;6.536;2022-08-19T10:03:51;19.95;;;12.43;;
58338;SDS011;48278;52.704;6.536;2022-08-19T10:06:20;18.73;;;11.52;;
58338;SDS011;48278;52.704;6.536;2022-08-19T10:08:48;18.42;;;11.32;;
58338;SDS011;48278;52.704;6.536;2022-08-19T10:11:14;19.60;;;12.10;;
58338;SDS011;48278;52.704;6.536;2022-08-19T10:13:41;20.65;;;12.38;;
58338;SDS011;48278;52.704;6.536;2022-08-19T10:16:09;19.27;;;11.05;;
58338;SDS011;48278;52.704;6.536;2022-08-19T10:18:46;19.23;;;10.75;;
58338;SDS011;48278;52.704;6.536;2022-08-19T10:21:16;20.53;;;11.97;;
58338;SDS011;48278;52.704;6.536;2022-08-19T10:23:45;21.42;;;13.70;;
58338;SDS011;48278;52.704;6.536;2022-08-19T10:26:14;21.63;;;12.77;;
58338;SDS011;48278;52.704;6.536;2022-08-19T10:28:42;23.92;;;13.32;;
58338;SDS011;48278;52.704;6.536;2022-08-19T10:31:15;22.77;;;13.52;;
58338;SDS011;48278;52.704;6.536;2022-08-19T10:33:45;26.20;;;14.30;;
58338;SDS011;48278;52.704;6.536;2022-08-19T10:36:16;22.15;;;13.05;;
58338;SDS011;48278;52.704;6.536;2022-08-19T10:38:45;23.42;;;11.60;;
58338;SDS011;48278;52.704;6.536;2022-08-19T10:41:19;21.58;;;11.35;;
58338;SDS011;48278;52.704;6.536;2022-08-19T10:43:50;24.58;;;12.90;;
58338;SDS011;48278;52.704;6.536;2022-08-19T10:46:21;19.52;;;12.25;;
58338;SDS011;48278;52.704;6.536;2022-08-19T10:48:48;23.02;;;11.95;;
58338;SDS011;48278;52.704;6.536;2022-08-19T10:54:00;22.30;;;12.82;;
58338;SDS011;48278;52.704;6.536;2022-08-19T10:56:27;21.73;;;13.80;;
58338;SDS011;48278;52.704;6.536;2022-08-19T10:59:13;25.50;;;14.45;;
58338;SDS011;48278;52.704;6.536;2022-08-19T11:01:42;23.90;;;13.60;;
58338;SDS011;48278;52.704;6.536;2022-08-19T11:04:09;22.33;;;13.82;;
58338;SDS011;48278;52.704;6.536;2022-08-19T11:06:38;25.13;;;14.23;;
58338;SDS011;48278;52.704;6.536;2022-08-19T11:09:05;22.45;;;12.95;;
58338;SDS011;48278;52.704;6.536;2022-08-19T11:14:04;21.80;;;12.73;;
58338;SDS011;48278;52.704;6.536;2022-08-19T11:16:31;23.13;;;13.80;;
58338;SDS011;48278;52.704;6.536;2022-08-19T11:18:57;19.85;;;13.45;;
58338;SDS011;48278;52.704;6.536;2022-08-19T11:21:26;21.30;;;13.50;;
58338;SDS011;48278;52.704;6.536;2022-08-19T11:23:55;26.52;;;16.38;;
58338;SDS011;48278;52.704;6.536;2022-08-19T11:26:23;30.75;;;20.42;;
58338;SDS011;48278;52.704;6.536;2022-08-19T11:28:49;31.77;;;21.85;;
58338;SDS011;48278;52.704;6.536;2022-08-19T11:31:19;25.45;;;14.48;;
58338;SDS011;48278;52.704;6.536;2022-08-19T11:33:47;19.77;;;12.95;;
58338;SDS011;48278;52.704;6.536;2022-08-19T11:36:16;20.48;;;13.80;;
58338;SDS011;48278;52.704;6.536;2022-08-19T11:38:43;35.97;;;17.77;;
58338;SDS011;48278;52.704;6.536;2022-08-19T11:41:14;24.40;;;17.92;;
58338;SDS011;48278;52.704;6.536;2022-08-19T11:43:42;25.88;;;17.35;;
58338;SDS011;48278;52.704;6.536;2022-08-19T11:46:12;25.48;;;15.68;;
58338;SDS011;48278;52.704;6.536;2022-08-19T11:48:39;17.58;;;11.75;;
58338;SDS011;48278;52.704;6.536;2022-08-19T11:51:07;21.63;;;14.55;;
58338;SDS011;48278;52.704;6.536;2022-08-19T11:53:37;23.50;;;16.50;;
58338;SDS011;48278;52.704;6.536;2022-08-19T11:56:03;29.63;;;17.70;;
58338;SDS011;48278;52.704;6.536;2022-08-19T11:58:30;24.50;;;16.50;;
58338;SDS011;48278;52.704;6.536;2022-08-19T12:00:56;26.67;;;16.27;;
58338;SDS011;48278;52.704;6.536;2022-08-19T12:03:22;19.17;;;12.75;;
58338;SDS011;48278;52.704;6.536;2022-08-19T12:05:48;17.20;;;11.18;;
58338;SDS011;48278;52.704;6.536;2022-08-19T12:08:15;16.42;;;10.40;;
58338;SDS011;48278;52.704;6.536;2022-08-19T12:10:42;13.45;;;9.98;;
58338;SDS011;48278;52.704;6.536;2022-08-19T12:13:09;17.88;;;9.65;;
58338;SDS011;48278;52.704;6.536;2022-08-19T12:15:36;17.33;;;10.02;;
58338;SDS011;48278;52.704;6.536;2022-08-19T12:18:03;14.32;;;8.45;;
58338;SDS011;48278;52.704;6.536;2022-08-19T12:20:29;14.93;;;10.18;;
58338;SDS011;48278;52.704;6.536;2022-08-19T12:22:55;17.20;;;9.57;;
58338;SDS011;48278;52.704;6.536;2022-08-19T12:25:21;17.27;;;9.70;;
58338;SDS011;48278;52.704;6.536;2022-08-19T12:27:47;15.20;;;8.43;;
58338;SDS011;48278;52.704;6.536;2022-08-19T12:30:14;17.65;;;9.00;;
58338;SDS011;48278;52.704;6.536;2022-08-19T12:32:40;13.57;;;9.07;;
58338;SDS011;48278;52.704;6.536;2022-08-19T12:35:06;14.52;;;8.90;;
58338;SDS011;48278;52.704;6.536;2022-08-19T12:37:34;12.43;;;7.63;;
58338;SDS011;48278;52.704;6.536;2022-08-19T12:40:00;19.77;;;11.43;;
58338;SDS011;48278;52.704;6.536;2022-08-19T12:42:26;19.88;;;12.75;;
58338;SDS011;48278;52.704;6.536;2022-08-19T12:44:51;21.20;;;13.05;;
58338;SDS011;48278;52.704;6.536;2022-08-19T12:47:18;30.30;;;16.17;;
58338;SDS011;48278;52.704;6.536;2022-08-19T12:49:43;26.88;;;15.45;;
58338;SDS011;48278;52.704;6.536;2022-08-19T12:52:11;26.58;;;16.25;;
58338;SDS011;48278;52.704;6.536;2022-08-19T12:54:40;29.40;;;16.48;;
58338;SDS011;48278;52.704;6.536;2022-08-19T12:57:16;28.05;;;16.55;;
58338;SDS011;48278;52.704;6.536;2022-08-19T12:59:42;27.10;;;16.48;;
58338;SDS011;48278;52.704;6.536;2022-08-19T13:02:08;22.90;;;13.18;;
58338;SDS011;48278;52.704;6.536;2022-08-19T13:04:36;20.73;;;12.05;;
58338;SDS011;48278;52.704;6.536;2022-08-19T13:07:08;21.25;;;11.60;;
58338;SDS011;48278;52.704;6.536;2022-08-19T13:09:34;18.52;;;11.52;;
58338;SDS011;48278;52.704;6.536;2022-08-19T13:12:00;19.10;;;10.75;;
58338;SDS011;48278;52.704;6.536;2022-08-19T13:14:28;18.30;;;10.25;;
58338;SDS011;48278;52.704;6.536;2022-08-19T13:16:55;31.20;;;14.65;;
58338;SDS011;48278;52.704;6.536;2022-08-19T13:21:49;30.70;;;15.80;;
58338;SDS011;48278;52.704;6.536;2022-08-19T13:26:41;29.48;;;15.68;;
58338;SDS011;48278;52.704;6.536;2022-08-19T13:29:07;28.98;;;16.92;;
58338;SDS011;48278;52.704;6.536;2022-08-19T13:31:52;30.77;;;16.88;;
58338;SDS011;48278;52.704;6.536;2022-08-19T13:34:36;27.92;;;13.48;;
58338;SDS011;48278;52.704;6.536;2022-08-19T13:37:02;31.75;;;14.00;;
58338;SDS011;48278;52.704;6.536;2022-08-19T13:39:29;29.65;;;14.40;;
58338;SDS011;48278;52.704;6.536;2022-08-19T13:41:57;24.33;;;13.50;;
58338;SDS011;48278;52.704;6.536;2022-08-19T13:44:25;23.52;;;12.63;;
58338;SDS011;48278;52.704;6.536;2022-08-19T13:46:54;30.83;;;14.75;;
58338;SDS011;48278;52.704;6.536;2022-08-19T13:49:25;26.30;;;14.40;;
58338;SDS011;48278;52.704;6.536;2022-08-19T13:51:55;21.63;;;11.70;;
58338;SDS011;48278;52.704;6.536;2022-08-19T13:54:20;24.42;;;11.43;;
58338;SDS011;48278;52.704;6.536;2022-08-19T13:56:46;28.38;;;13.25;;
58338;SDS011;48278;52.704;6.536;2022-08-19T13:59:12;28.70;;;14.55;;
58338;SDS011;48278;52.704;6.536;2022-08-19T14:01:38;31.70;;;15.52;;
58338;SDS011;48278;52.704;6.536;2022-08-19T14:04:04;25.73;;;14.35;;
58338;SDS011;48278;52.704;6.536;2022-08-19T14:06:31;29.45;;;14.02;;
58338;SDS011;48278;52.704;6.536;2022-08-19T14:08:57;23.35;;;13.38;;
58338;SDS011;48278;52.704;6.536;2022-08-19T14:11:24;25.95;;;13.82;;
58338;SDS011;48278;52.704;6.536;2022-08-19T14:13:51;27.33;;;13.98;;
58338;SDS011;48278;52.704;6.536;2022-08-19T14:16:16;23.92;;;12.63;;
58338;SDS011;48278;52.704;6.536;2022-08-19T14:18:43;18.35;;;11.10;;
58338;SDS011;48278;52.704;6.536;2022-08-19T14:21:17;16.70;;;9.90;;
58338;SDS011;48278;52.704;6.536;2022-08-19T14:23:48;21.42;;;10.48;;
58338;SDS011;48278;52.704;6.536;2022-08-19T14:26:15;22.13;;;11.57;;
58338;SDS011;48278;52.704;6.536;2022-08-19T14:28:43;25.98;;;12.43;;
58338;SDS011;48278;52.704;6.536;2022-08-19T14:31:10;21.52;;;13.27;;
58338;SDS011;48278;52.704;6.536;2022-08-19T14:33:37;21.92;;;13.10;;
58338;SDS011;48278;52.704;6.536;2022-08-19T14:36:03;24.65;;;13.82;;
58338;SDS011;48278;52.704;6.536;2022-08-19T14:38:30;27.05;;;15.40;;
58338;SDS011;48278;52.704;6.536;2022-08-19T14:41:13;37.72;;;21.00;;
58338;SDS011;48278;52.704;6.536;2022-08-19T14:43:42;41.67;;;22.50;;
58338;SDS011;48278;52.704;6.536;2022-08-19T14:46:11;38.70;;;22.08;;
58338;SDS011;48278;52.704;6.536;2022-08-19T14:48:41;34.63;;;19.55;;
58338;SDS011;48278;52.704;6.536;2022-08-19T14:51:08;39.70;;;19.80;;
58338;SDS011;48278;52.704;6.536;2022-08-19T14:53:34;38.15;;;18.88;;
58338;SDS011;48278;52.704;6.536;2022-08-19T14:56:00;35.45;;;18.70;;
58338;SDS011;48278;52.704;6.536;2022-08-19T14:58:31;32.22;;;19.52;;
58338;SDS011;48278;52.704;6.536;2022-08-19T15:00:58;32.65;;;17.75;;
58338;SDS011;48278;52.704;6.536;2022-08-19T15:03:24;34.70;;;20.17;;
58338;SDS011;48278;52.704;6.536;2022-08-19T15:10:42;27.40;;;15.93;;
58338;SDS011;48278;52.704;6.536;2022-08-19T15:13:07;26.90;;;13.73;;
58338;SDS011;48278;52.704;6.536;2022-08-19T15:15:34;30.60;;;14.77;;
58338;SDS011;48278;52.704;6.536;2022-08-19T15:18:00;32.70;;;16.77;;
58338;SDS011;48278;52.704;6.536;2022-08-19T15:20:27;32.97;;;17.58;;
58338;SDS011;48278;52.704;6.536;2022-08-19T15:22:54;40.45;;;19.05;;
58338;SDS011;48278;52.704;6.536;2022-08-19T15:25:20;38.60;;;19.80;;
58338;SDS011;48278;52.704;6.536;2022-08-19T15:27:46;40.55;;;19.35;;
58338;SDS011;48278;52.704;6.536;2022-08-19T15:30:18;38.90;;;19.75;;
58338;SDS011;48278;52.704;6.536;2022-08-19T15:32:46;38.08;;;19.77;;
58338;SDS011;48278;52.704;6.536;2022-08-19T15:35:12;42.65;;;20.33;;
58338;SDS011;48278;52.704;6.536;2022-08-19T15:37:38;40.33;;;19.80;;
58338;SDS011;48278;52.704;6.536;2022-08-19T15:40:05;45.28;;;20.38;;
58338;SDS011;48278;52.704;6.536;2022-08-19T15:42:34;44.75;;;20.90;;
58338;SDS011;48278;52.704;6.536;2022-08-19T15:45:02;40.53;;;19.17;;
58338;SDS011;48278;52.704;6.536;2022-08-19T15:47:31;40.40;;;20.23;;
58338;SDS011;48278;52.704;6.536;2022-08-19T15:49:56;39.30;;;20.37;;
58338;SDS011;48278;52.704;6.536;2022-08-19T15:52:26;44.92;;;20.50;;
58338;SDS011;48278;52.704;6.536;2022-08-19T15:54:52;42.10;;;20.77;;
58338;SDS011;48278;52.704;6.536;2022-08-19T15:57:17;41.93;;;21.00;;
58338;SDS011;48278;52.704;6.536;2022-08-19T15:59:46;39.00;;;20.48;;
58338;SDS011;48278;52.704;6.536;2022-08-19T16:02:30;39.63;;;20.45;;
58338;SDS011;48278;52.704;6.536;2022-08-19T16:05:16;38.40;;;18.40;;
58338;SDS011;48278;52.704;6.536;2022-08-19T16:08:02;40.58;;;19.73;;
58338;SDS011;48278;52.704;6.536;2022-08-19T16:10:29;34.38;;;18.42;;
58338;SDS011;48278;52.704;6.536;2022-08-19T16:12:55;35.33;;;17.08;;
58338;SDS011;48278;52.704;6.536;2022-08-19T16:15:21;31.58;;;15.80;;
58338;SDS011;48278;52.704;6.536;2022-08-19T16:17:48;32.25;;;13.38;;
58338;SDS011;48278;52.704;6.536;2022-08-19T16:20:13;25.00;;;12.90;;
58338;SDS011;48278;52.704;6.536;2022-08-19T16:22:41;20.88;;;10.38;;
58338;SDS011;48278;52.704;6.536;2022-08-19T16:25:07;24.50;;;10.80;;
58338;SDS011;48278;52.704;6.536;2022-08-19T16:27:34;15.68;;;9.00;;
58338;SDS011;48278;52.704;6.536;2022-08-19T16:30:01;17.58;;;9.10;;
58338;SDS011;48278;52.704;6.536;2022-08-19T16:32:28;20.58;;;9.13;;
58338;SDS011;48278;52.704;6.536;2022-08-19T16:34:53;22.40;;;9.05;;
58338;SDS011;48278;52.704;6.536;2022-08-19T16:37:19;22.58;;;9.07;;
58338;SDS011;48278;52.704;6.536;2022-08-19T16:39:46;18.85;;;9.43;;
58338;SDS011;48278;52.704;6.536;2022-08-19T16:42:12;19.03;;;9.53;;
58338;SDS011;48278;52.704;6.536;2022-08-19T16:44:42;18.77;;;9.45;;
58338;SDS011;48278;52.704;6.536;2022-08-19T16:47:10;19.73;;;9.50;;
58338;SDS011;48278;52.704;6.536;2022-08-19T16:49:37;21.23;;;9.18;;
58338;SDS011;48278;52.704;6.536;2022-08-19T16:52:04;18.95;;;9.05;;
58338;SDS011;48278;52.704;6.536;2022-08-19T16:54:33;17.30;;;10.35;;
58338;SDS011;48278;52.704;6.536;2022-08-19T16:56:59;19.27;;;10.18;;
58338;SDS011;48278;52.704;6.536;2022-08-19T16:59:25;23.03;;;9.77;;
58338;SDS011;48278;52.704;6.536;2022-08-19T17:01:51;19.67;;;11.07;;
58338;SDS011;48278;52.704;6.536;2022-08-19T17:04:17;23.60;;;11.07;;
58338;SDS011;48278;52.704;6.536;2022-08-19T17:06:43;25.05;;;10.55;;
58338;SDS011;48278;52.704;6.536;2022-08-19T17:09:09;22.52;;;10.30;;
58338;SDS011;48278;52.704;6.536;2022-08-19T17:14:02;16.55;;;8.98;;
58338;SDS011;48278;52.704;6.536;2022-08-19T17:16:32;21.30;;;10.05;;
58338;SDS011;48278;52.704;6.536;2022-08-19T17:19:00;24.75;;;9.90;;
58338;SDS011;48278;52.704;6.536;2022-08-19T17:21:28;21.02;;;10.27;;
58338;SDS011;48278;52.704;6.536;2022-08-19T17:23:56;22.27;;;10.23;;
58338;SDS011;48278;52.704;6.536;2022-08-19T17:26:23;19.60;;;10.10;;
58338;SDS011;48278;52.704;6.536;2022-08-19T17:28:50;22.42;;;10.93;;
58338;SDS011;48278;52.704;6.536;2022-08-19T17:31:18;23.98;;;11.45;;
58338;SDS011;48278;52.704;6.536;2022-08-19T17:33:47;20.88;;;10.77;;
58338;SDS011;48278;52.704;6.536;2022-08-19T17:36:14;20.92;;;10.57;;
58338;SDS011;48278;52.704;6.536;2022-08-19T17:38:41;21.50;;;10.52;;
58338;SDS011;48278;52.704;6.536;2022-08-19T17:41:06;24.70;;;12.23;;
58338;SDS011;48278;52.704;6.536;2022-08-19T17:43:32;26.83;;;12.27;;
58338;SDS011;48278;52.704;6.536;2022-08-19T17:45:59;28.30;;;11.43;;
58338;SDS011;48278;52.704;6.536;2022-08-19T17:48:31;26.13;;;11.77;;
58338;SDS011;48278;52.704;6.536;2022-08-19T17:53:58;24.88;;;13.30;;
58338;SDS011;48278;52.704;6.536;2022-08-19T17:56:24;24.50;;;12.45;;
58338;SDS011;48278;52.704;6.536;2022-08-19T17:58:52;24.92;;;13.95;;
58338;SDS011;48278;52.704;6.536;2022-08-19T18:01:19;25.92;;;12.60;;
58338;SDS011;48278;52.704;6.536;2022-08-19T18:03:45;23.42;;;12.75;;
58338;SDS011;48278;52.704;6.536;2022-08-19T18:06:12;24.17;;;14.40;;
58338;SDS011;48278;52.704;6.536;2022-08-19T18:08:40;23.40;;;13.40;;
58338;SDS011;48278;52.704;6.536;2022-08-19T18:11:09;26.70;;;13.20;;
58338;SDS011;48278;52.704;6.536;2022-08-19T18:13:34;25.03;;;13.97;;
58338;SDS011;48278;52.704;6.536;2022-08-19T18:16:01;24.38;;;13.50;;
58338;SDS011;48278;52.704;6.536;2022-08-19T18:18:27;24.50;;;13.15;;
58338;SDS011;48278;52.704;6.536;2022-08-19T18:20:54;25.43;;;12.97;;
58338;SDS011;48278;52.704;6.536;2022-08-19T18:28:12;25.83;;;13.25;;
58338;SDS011;48278;52.704;6.536;2022-08-19T18:30:38;25.53;;;13.87;;
58338;SDS011;48278;52.704;6.536;2022-08-19T18:33:04;30.77;;;15.77;;
58338;SDS011;48278;52.704;6.536;2022-08-19T18:35:40;30.73;;;16.10;;
58338;SDS011;48278;52.704;6.536;2022-08-19T18:38:11;33.50;;;20.17;;
58338;SDS011;48278;52.704;6.536;2022-08-19T18:40:57;46.67;;;19.90;;
58338;SDS011;48278;52.704;6.536;2022-08-19T18:43:41;40.25;;;20.08;;
58338;SDS011;48278;52.704;6.536;2022-08-19T18:46:26;41.30;;;21.70;;
58338;SDS011;48278;52.704;6.536;2022-08-19T18:49:11;44.33;;;21.90;;
58338;SDS011;48278;52.704;6.536;2022-08-19T18:51:42;45.80;;;22.60;;
58338;SDS011;48278;52.704;6.536;2022-08-19T18:54:08;46.83;;;23.23;;
58338;SDS011;48278;52.704;6.536;2022-08-19T18:56:34;44.15;;;23.00;;
58338;SDS011;48278;52.704;6.536;2022-08-19T18:59:03;46.17;;;22.38;;
58338;SDS011;48278;52.704;6.536;2022-08-19T19:01:30;45.57;;;22.90;;
58338;SDS011;48278;52.704;6.536;2022-08-19T19:03:59;50.60;;;22.92;;
58338;SDS011;48278;52.704;6.536;2022-08-19T19:06:28;45.25;;;22.77;;
58338;SDS011;48278;52.704;6.536;2022-08-19T19:08:56;53.75;;;24.05;;
58338;SDS011;48278;52.704;6.536;2022-08-19T19:11:23;47.53;;;23.90;;
58338;SDS011;48278;52.704;6.536;2022-08-19T19:13:52;46.97;;;24.17;;
58338;SDS011;48278;52.704;6.536;2022-08-19T19:16:18;44.88;;;24.10;;
58338;SDS011;48278;52.704;6.536;2022-08-19T19:18:46;38.08;;;22.30;;
58338;SDS011;48278;52.704;6.536;2022-08-19T19:21:16;41.25;;;22.30;;
58338;SDS011;48278;52.704;6.536;2022-08-19T19:23:47;44.45;;;22.58;;
58338;SDS011;48278;52.704;6.536;2022-08-19T19:26:13;45.63;;;23.08;;
58338;SDS011;48278;52.704;6.536;2022-08-19T19:28:39;46.87;;;24.57;;
58338;SDS011;48278;52.704;6.536;2022-08-19T19:31:17;47.47;;;23.80;;
58338;SDS011;48278;52.704;6.536;2022-08-19T19:33:44;52.00;;;25.17;;
58338;SDS011;48278;52.704;6.536;2022-08-19T19:36:11;44.45;;;24.90;;
58338;SDS011;48278;52.704;6.536;2022-08-19T19:38:37;43.35;;;22.33;;
58338;SDS011;48278;52.704;6.536;2022-08-19T19:41:03;40.45;;;22.02;;
58338;SDS011;48278;52.704;6.536;2022-08-19T19:43:29;44.67;;;23.58;;
58338;SDS011;48278;52.704;6.536;2022-08-19T19:45:55;41.17;;;21.98;;
58338;SDS011;48278;52.704;6.536;2022-08-19T19:48:21;41.78;;;22.33;;
58338;SDS011;48278;52.704;6.536;2022-08-19T19:50:48;37.58;;;21.38;;
58338;SDS011;48278;52.704;6.536;2022-08-19T19:53:14;50.58;;;23.02;;
58338;SDS011;48278;52.704;6.536;2022-08-19T19:55:41;40.93;;;21.40;;
58338;SDS011;48278;52.704;6.536;2022-08-19T20:00:33;39.80;;;20.38;;
58338;SDS011;48278;52.704;6.536;2022-08-19T20:02:59;36.13;;;19.73;;
58338;SDS011;48278;52.704;6.536;2022-08-19T20:05:26;35.58;;;19.02;;
58338;SDS011;48278;52.704;6.536;2022-08-19T20:07:52;34.72;;;18.52;;
58338;SDS011;48278;52.704;6.536;2022-08-19T20:10:39;35.20;;;18.63;;
58338;SDS011;48278;52.704;6.536;2022-08-19T20:13:07;28.05;;;16.88;;
58338;SDS011;48278;52.704;6.536;2022-08-19T20:15:34;31.05;;;17.55;;
58338;SDS011;48278;52.704;6.536;2022-08-19T20:18:01;30.75;;;17.60;;
58338;SDS011;48278;52.704;6.536;2022-08-19T20:20:29;27.92;;;17.17;;
58338;SDS011;48278;52.704;6.536;2022-08-19T20:22:56;30.58;;;17.25;;
58338;SDS011;48278;52.704;6.536;2022-08-19T20:25:22;29.08;;;16.75;;
58338;SDS011;48278;52.704;6.536;2022-08-19T20:27:49;27.67;;;15.77;;
58338;SDS011;48278;52.704;6.536;2022-08-19T20:30:16;29.65;;;16.13;;
58338;SDS011;48278;52.704;6.536;2022-08-19T20:32:45;28.85;;;16.50;;
58338;SDS011;48278;52.704;6.536;2022-08-19T20:35:13;28.67;;;16.77;;
58338;SDS011;48278;52.704;6.536;2022-08-19T20:37:42;31.02;;;15.95;;
58338;SDS011;48278;52.704;6.536;2022-08-19T20:40:08;27.00;;;16.63;;
58338;SDS011;48278;52.704;6.536;2022-08-19T20:42:35;29.65;;;16.65;;
58338;SDS011;48278;52.704;6.536;2022-08-19T20:45:04;27.00;;;16.98;;
58338;SDS011;48278;52.704;6.536;2022-08-19T20:47:33;31.77;;;18.08;;
58338;SDS011;48278;52.704;6.536;2022-08-19T20:50:00;28.00;;;17.00;;
58338;SDS011;48278;52.704;6.536;2022-08-19T20:52:27;28.10;;;17.33;;
58338;SDS011;48278;52.704;6.536;2022-08-19T20:54:53;34.63;;;17.57;;
58338;SDS011;48278;52.704;6.536;2022-08-19T20:57:18;32.27;;;18.00;;
58338;SDS011;48278;52.704;6.536;2022-08-19T20:59:44;28.93;;;16.67;;
58338;SDS011;48278;52.704;6.536;2022-08-19T21:02:10;27.23;;;16.70;;
58338;SDS011;48278;52.704;6.536;2022-08-19T21:04:36;20.73;;;12.37;;
58338;SDS011;48278;52.704;6.536;2022-08-19T21:07:01;20.23;;;12.60;;
58338;SDS011;48278;52.704;6.536;2022-08-19T21:09:27;18.60;;;10.97;;
58338;SDS011;48278;52.704;6.536;2022-08-19T21:11:53;17.83;;;11.00;;
58338;SDS011;48278;52.704;6.536;2022-08-19T21:14:19;19.57;;;10.97;;
58338;SDS011;48278;52.704;6.536;2022-08-19T21:16:45;18.83;;;10.40;;
58338;SDS011;48278;52.704;6.536;2022-08-19T21:19:11;30.40;;;10.88;;
58338;SDS011;48278;52.704;6.536;2022-08-19T21:21:37;19.83;;;10.70;;
58338;SDS011;48278;52.704;6.536;2022-08-19T21:24:03;18.87;;;9.90;;
58338;SDS011;48278;52.704;6.536;2022-08-19T21:26:28;18.47;;;10.00;;
58338;SDS011;48278;52.704;6.536;2022-08-19T21:28:54;19.43;;;10.17;;
58338;SDS011;48278;52.704;6.536;2022-08-19T21:31:20;19.45;;;11.75;;
58338;SDS011;48278;52.704;6.536;2022-08-19T21:33:46;21.77;;;11.23;;
58338;SDS011;48278;52.704;6.536;2022-08-19T21:36:12;21.67;;;12.13;;
58338;SDS011;48278;52.704;6.536;2022-08-19T21:38:38;20.47;;;11.47;;
58338;SDS011;48278;52.704;6.536;2022-08-19T21:41:05;21.88;;;12.27;;
58338;SDS011;48278;52.704;6.536;2022-08-19T21:43:31;18.98;;;11.25;;
58338;SDS011;48278;52.704;6.536;2022-08-19T21:45:58;25.73;;;13.00;;
58338;SDS011;48278;52.704;6.536;2022-08-19T21:48:24;17.23;;;11.40;;
58338;SDS011;48278;52.704;6.536;2022-08-19T21:50:50;23.67;;;12.30;;
58338;SDS011;48278;52.704;6.536;2022-08-19T21:53:16;22.47;;;12.23;;
58338;SDS011;48278;52.704;6.536;2022-08-19T21:55:42;21.42;;;12.82;;
58338;SDS011;48278;52.704;6.536;2022-08-19T21:58:09;23.30;;;13.43;;
58338;SDS011;48278;52.704;6.536;2022-08-19T22:00:36;21.35;;;12.55;;
58338;SDS011;48278;52.704;6.536;2022-08-19T22:03:03;22.30;;;12.82;;
58338;SDS011;48278;52.704;6.536;2022-08-19T22:05:30;24.30;;;13.57;;
58338;SDS011;48278;52.704;6.536;2022-08-19T22:07:57;22.10;;;13.82;;
58338;SDS011;48278;52.704;6.536;2022-08-19T22:10:24;29.42;;;13.82;;
58338;SDS011;48278;52.704;6.536;2022-08-19T22:12:52;22.40;;;13.52;;
58338;SDS011;48278;52.704;6.536;2022-08-19T22:15:21;24.35;;;13.80;;
58338;SDS011;48278;52.704;6.536;2022-08-19T22:17:47;27.73;;;14.30;;
58338;SDS011;48278;52.704;6.536;2022-08-19T22:20:16;21.08;;;12.02;;
58338;SDS011;48278;52.704;6.536;2022-08-19T22:22:45;21.08;;;11.82;;
58338;SDS011;48278;52.704;6.536;2022-08-19T22:25:16;25.42;;;12.73;;
58338;SDS011;48278;52.704;6.536;2022-08-19T22:27:44;20.50;;;12.20;;
58338;SDS011;48278;52.704;6.536;2022-08-19T22:30:11;24.17;;;13.10;;
58338;SDS011;48278;52.704;6.536;2022-08-19T22:32:42;22.90;;;12.85;;
58338;SDS011;48278;52.704;6.536;2022-08-19T22:35:14;22.45;;;12.43;;
58338;SDS011;48278;52.704;6.536;2022-08-19T22:37:44;22.27;;;12.20;;
58338;SDS011;48278;52.704;6.536;2022-08-19T22:40:10;23.57;;;12.40;;
58338;SDS011;48278;52.704;6.536;2022-08-19T22:42:37;28.83;;;12.63;;
58338;SDS011;48278;52.704;6.536;2022-08-19T22:45:04;25.42;;;12.32;;
58338;SDS011;48278;52.704;6.536;2022-08-19T22:47:31;26.40;;;11.98;;
58338;SDS011;48278;52.704;6.536;2022-08-19T22:49:57;22.83;;;12.18;;
58338;SDS011;48278;52.704;6.536;2022-08-19T22:52:23;22.33;;;11.67;;
58338;SDS011;48278;52.704;6.536;2022-08-19T22:54:49;26.77;;;12.87;;
58338;SDS011;48278;52.704;6.536;2022-08-19T22:57:17;23.90;;;12.38;;
58338;SDS011;48278;52.704;6.536;2022-08-19T22:59:48;27.58;;;12.82;;
58338;SDS011;48278;52.704;6.536;2022-08-19T23:02:18;30.88;;;12.73;;
58338;SDS011;48278;52.704;6.536;2022-08-19T23:05:03;26.42;;;12.25;;
58338;SDS011;48278;52.704;6.536;2022-08-19T23:07:31;24.95;;;13.10;;
58338;SDS011;48278;52.704;6.536;2022-08-19T23:09:57;19.87;;;11.57;;
58338;SDS011;48278;52.704;6.536;2022-08-19T23:12:32;29.08;;;13.13;;
58338;SDS011;48278;52.704;6.536;2022-08-19T23:15:06;29.65;;;13.07;;
58338;SDS011;48278;52.704;6.536;2022-08-19T23:17:35;24.13;;;12.52;;
58338;SDS011;48278;52.704;6.536;2022-08-19T23:20:03;24.23;;;12.27;;
58338;SDS011;48278;52.704;6.536;2022-08-19T23:22:30;27.90;;;12.27;;
58338;SDS011;48278;52.704;6.536;2022-08-19T23:25:01;25.42;;;12.93;;
58338;SDS011;48278;52.704;6.536;2022-08-19T23:27:30;24.17;;;12.63;;
58338;SDS011;48278;52.704;6.536;2022-08-19T23:30:15;29.60;;;12.70;;
58338;SDS011;48278;52.704;6.536;2022-08-19T23:32:50;22.85;;;11.80;;
58338;SDS011;48278;52.704;6.536;2022-08-19T23:35:17;26.15;;;12.75;;
58338;SDS011;48278;52.704;6.536;2022-08-19T23:37:43;22.35;;;12.30;;
58338;SDS011;48278;52.704;6.536;2022-08-19T23:40:09;22.10;;;12.23;;
58338;SDS011;48278;52.704;6.536;2022-08-19T23:42:38;25.80;;;12.77;;
58338;SDS011;48278;52.704;6.536;2022-08-19T23:45:06;25.95;;;12.30;;